sensor_id;sensor_type;location;lat;lon;timestamp;P1;durP1;ratioP1;P2;durP2;ratioP2
12792;SDS011;6460;42.684;23.260;2024-01-11T07:44:19;31.63;;;20.17;;
12792;SDS011;6460;42.684;23.260;2024-01-11T07:46:48;37.13;;;22.70;;
12792;SDS011;6460;42.684;23.260;2024-01-11T07:49:19;37.77;;;23.00;;
12792;SDS011;6460;42.684;23.260;2024-01-11T07:57:03;52.23;;;32.57;;
12792;SDS011;6460;42.684;23.260;2024-01-11T09:09:00;31.87;;;20.90;;
12792;SDS011;6460;42.684;23.260;2024-01-11T09:12:07;32.30;;;19.83;;
12792;SDS011;6460;42.684;23.260;2024-01-11T09:14:53;37.73;;;24.60;;
12792;SDS011;6460;42.684;23.260;2024-01-11T09:17:52;36.57;;;24.83;;
12792;SDS011;6460;42.684;23.260;2024-01-11T09:20:21;36.27;;;25.80;;
12792;SDS011;6460;42.684;23.260;2024-01-11T09:22:54;49.43;;;28.70;;
12792;SDS011;6460;42.684;23.260;2024-01-11T09:25:31;44.30;;;27.73;;
12792;SDS011;6460;42.684;23.260;2024-01-11T09:28:04;46.00;;;29.03;;
12792;SDS011;6460;42.684;23.260;2024-01-11T09:30:32;42.43;;;27.63;;
12792;SDS011;6460;42.684;23.260;2024-01-11T09:33:00;40.77;;;27.53;;
12792;SDS011;6460;42.684;23.260;2024-01-11T09:35:30;42.47;;;27.83;;
12792;SDS011;6460;42.684;23.260;2024-01-11T09:37:58;40.50;;;26.73;;
12792;SDS011;6460;42.684;23.260;2024-01-11T09:40:26;40.30;;;26.70;;
12792;SDS011;6460;42.684;23.260;2024-01-11T09:42:56;39.07;;;26.60;;
12792;SDS011;6460;42.684;23.260;2024-01-11T09:45:24;40.70;;;26.23;;
12792;SDS011;6460;42.684;23.260;2024-01-11T09:47:53;44.57;;;27.67;;
12792;SDS011;6460;42.684;23.260;2024-01-11T09:50:22;41.37;;;28.33;;
12792;SDS011;6460;42.684;23.260;2024-01-11T09:52:51;44.03;;;27.27;;
12792;SDS011;6460;42.684;23.260;2024-01-11T09:55:20;38.77;;;26.67;;
12792;SDS011;6460;42.684;23.260;2024-01-11T09:57:48;37.27;;;24.13;;
12792;SDS011;6460;42.684;23.260;2024-01-11T10:00:24;35.33;;;23.30;;
12792;SDS011;6460;42.684;23.260;2024-01-11T10:02:54;37.80;;;23.90;;
12792;SDS011;6460;42.684;23.260;2024-01-11T10:05:25;37.70;;;25.57;;
12792;SDS011;6460;42.684;23.260;2024-01-11T10:07:55;38.90;;;26.03;;
12792;SDS011;6460;42.684;23.260;2024-01-11T10:10:23;37.30;;;23.93;;
12792;SDS011;6460;42.684;23.260;2024-01-11T10:12:51;36.50;;;24.03;;
12792;SDS011;6460;42.684;23.260;2024-01-11T10:15:19;33.27;;;22.43;;
12792;SDS011;6460;42.684;23.260;2024-01-11T10:17:52;39.80;;;27.17;;
12792;SDS011;6460;42.684;23.260;2024-01-11T10:20:21;35.73;;;22.30;;
12792;SDS011;6460;42.684;23.260;2024-01-11T10:22:49;29.97;;;20.17;;
12792;SDS011;6460;42.684;23.260;2024-01-11T10:27:52;30.73;;;17.73;;
12792;SDS011;6460;42.684;23.260;2024-01-11T10:30:20;28.73;;;18.27;;
12792;SDS011;6460;42.684;23.260;2024-01-11T10:32:51;27.47;;;17.63;;
12792;SDS011;6460;42.684;23.260;2024-01-11T10:35:19;26.63;;;17.67;;
12792;SDS011;6460;42.684;23.260;2024-01-11T10:43:01;30.37;;;19.23;;
12792;SDS011;6460;42.684;23.260;2024-01-11T10:45:39;30.37;;;18.90;;
12792;SDS011;6460;42.684;23.260;2024-01-11T10:48:30;32.23;;;16.77;;
12792;SDS011;6460;42.684;23.260;2024-01-11T10:51:00;27.97;;;17.30;;
12792;SDS011;6460;42.684;23.260;2024-01-11T10:58:43;30.17;;;18.17;;
12792;SDS011;6460;42.684;23.260;2024-01-11T11:01:11;29.23;;;17.30;;
12792;SDS011;6460;42.684;23.260;2024-01-11T11:03:45;26.57;;;17.07;;
12792;SDS011;6460;42.684;23.260;2024-01-11T11:06:15;22.37;;;15.47;;
12792;SDS011;6460;42.684;23.260;2024-01-11T11:08:47;21.93;;;13.93;;
12792;SDS011;6460;42.684;23.260;2024-01-11T11:11:17;22.80;;;13.80;;
12792;SDS011;6460;42.684;23.260;2024-01-11T11:13:46;25.67;;;15.00;;
12792;SDS011;6460;42.684;23.260;2024-01-11T11:16:15;25.37;;;14.10;;
12792;SDS011;6460;42.684;23.260;2024-01-11T11:18:47;18.73;;;13.03;;
12792;SDS011;6460;42.684;23.260;2024-01-11T11:21:17;21.07;;;13.40;;
12792;SDS011;6460;42.684;23.260;2024-01-11T11:23:47;19.30;;;13.30;;
12792;SDS011;6460;42.684;23.260;2024-01-11T11:26:19;20.27;;;12.97;;
12792;SDS011;6460;42.684;23.260;2024-01-11T11:28:47;22.60;;;13.60;;
12792;SDS011;6460;42.684;23.260;2024-01-11T11:31:16;21.53;;;13.10;;
12792;SDS011;6460;42.684;23.260;2024-01-11T11:34:05;21.47;;;13.03;;
12792;SDS011;6460;42.684;23.260;2024-01-11T11:36:33;21.57;;;14.10;;
12792;SDS011;6460;42.684;23.260;2024-01-11T11:39:01;20.00;;;13.03;;
12792;SDS011;6460;42.684;23.260;2024-01-11T11:46:45;16.77;;;11.20;;
12792;SDS011;6460;42.684;23.260;2024-01-11T11:49:14;14.13;;;11.20;;
12792;SDS011;6460;42.684;23.260;2024-01-11T11:51:43;14.83;;;10.63;;
12792;SDS011;6460;42.684;23.260;2024-01-11T11:56:52;15.67;;;10.50;;
12792;SDS011;6460;42.684;23.260;2024-01-11T12:01:55;14.10;;;8.73;;
12792;SDS011;6460;42.684;23.260;2024-01-11T12:04:25;11.73;;;8.37;;
12792;SDS011;6460;42.684;23.260;2024-01-11T12:06:53;11.83;;;8.77;;
12792;SDS011;6460;42.684;23.260;2024-01-11T12:09:21;9.33;;;7.53;;
12792;SDS011;6460;42.684;23.260;2024-01-11T12:11:49;11.67;;;7.43;;
12792;SDS011;6460;42.684;23.260;2024-01-11T12:14:17;10.47;;;7.73;;
12792;SDS011;6460;42.684;23.260;2024-01-11T12:16:44;10.67;;;6.47;;
12792;SDS011;6460;42.684;23.260;2024-01-11T12:19:22;9.47;;;6.40;;
12792;SDS011;6460;42.684;23.260;2024-01-11T12:40:00;4.50;;;3.10;;
12792;SDS011;6460;42.684;23.260;2024-01-11T12:47:38;5.00;;;3.90;;
12792;SDS011;6460;42.684;23.260;2024-01-11T12:52:43;3.37;;;2.97;;
12792;SDS011;6460;42.684;23.260;2024-01-11T15:06:41;10.47;;;6.90;;
12792;SDS011;6460;42.684;23.260;2024-01-11T16:01:46;12.97;;;8.07;;
12792;SDS011;6460;42.684;23.260;2024-01-11T16:04:14;14.50;;;9.23;;
12792;SDS011;6460;42.684;23.260;2024-01-11T16:06:41;12.67;;;7.87;;
12792;SDS011;6460;42.684;23.260;2024-01-11T16:09:12;12.87;;;8.03;;
12792;SDS011;6460;42.684;23.260;2024-01-11T16:11:40;13.13;;;8.47;;
12792;SDS011;6460;42.684;23.260;2024-01-11T16:14:08;9.50;;;5.93;;
12792;SDS011;6460;42.684;23.260;2024-01-11T16:16:38;11.23;;;6.90;;
12792;SDS011;6460;42.684;23.260;2024-01-11T16:19:08;8.60;;;5.97;;
12792;SDS011;6460;42.684;23.260;2024-01-11T16:24:07;10.97;;;7.30;;
12792;SDS011;6460;42.684;23.260;2024-01-11T16:26:38;9.50;;;6.13;;
12792;SDS011;6460;42.684;23.260;2024-01-11T16:29:32;11.40;;;6.80;;
12792;SDS011;6460;42.684;23.260;2024-01-11T17:11:44;9.00;;;6.33;;
12792;SDS011;6460;42.684;23.260;2024-01-11T17:14:11;7.33;;;4.93;;
12792;SDS011;6460;42.684;23.260;2024-01-11T17:16:38;8.23;;;4.87;;
12792;SDS011;6460;42.684;23.260;2024-01-11T17:19:06;6.03;;;4.03;;
12792;SDS011;6460;42.684;23.260;2024-01-11T17:21:34;5.57;;;3.47;;
12792;SDS011;6460;42.684;23.260;2024-01-11T17:24:01;6.37;;;4.27;;
12792;SDS011;6460;42.684;23.260;2024-01-11T17:26:29;6.87;;;4.27;;
12792;SDS011;6460;42.684;23.260;2024-01-11T17:28:58;8.47;;;5.00;;
12792;SDS011;6460;42.684;23.260;2024-01-11T17:31:29;7.80;;;5.03;;
12792;SDS011;6460;42.684;23.260;2024-01-11T17:33:56;9.83;;;5.80;;
12792;SDS011;6460;42.684;23.260;2024-01-11T17:36:24;7.50;;;5.10;;
12792;SDS011;6460;42.684;23.260;2024-01-11T17:38:52;6.13;;;3.60;;
12792;SDS011;6460;42.684;23.260;2024-01-11T17:41:20;7.23;;;4.33;;
12792;SDS011;6460;42.684;23.260;2024-01-11T17:43:57;7.03;;;3.90;;
12792;SDS011;6460;42.684;23.260;2024-01-11T17:46:25;6.93;;;4.33;;
12792;SDS011;6460;42.684;23.260;2024-01-11T17:48:54;6.43;;;4.20;;
12792;SDS011;6460;42.684;23.260;2024-01-11T17:51:22;6.00;;;4.37;;
12792;SDS011;6460;42.684;23.260;2024-01-11T17:53:50;7.47;;;5.07;;
12792;SDS011;6460;42.684;23.260;2024-01-11T17:56:17;8.87;;;5.70;;
12792;SDS011;6460;42.684;23.260;2024-01-11T17:58:51;8.83;;;5.73;;
12792;SDS011;6460;42.684;23.260;2024-01-11T18:01:23;10.30;;;6.20;;
12792;SDS011;6460;42.684;23.260;2024-01-11T18:03:51;8.53;;;5.57;;
12792;SDS011;6460;42.684;23.260;2024-01-11T18:06:19;5.83;;;3.93;;
12792;SDS011;6460;42.684;23.260;2024-01-11T18:08:47;8.07;;;5.07;;
12792;SDS011;6460;42.684;23.260;2024-01-11T18:11:15;7.60;;;4.73;;
12792;SDS011;6460;42.684;23.260;2024-01-11T18:13:43;7.73;;;4.50;;
12792;SDS011;6460;42.684;23.260;2024-01-11T18:16:10;6.40;;;4.60;;
12792;SDS011;6460;42.684;23.260;2024-01-11T18:18:39;7.80;;;4.90;;
12792;SDS011;6460;42.684;23.260;2024-01-11T18:21:08;6.93;;;5.07;;
12792;SDS011;6460;42.684;23.260;2024-01-11T18:23:36;7.67;;;5.10;;
12792;SDS011;6460;42.684;23.260;2024-01-11T18:26:07;7.83;;;4.37;;
12792;SDS011;6460;42.684;23.260;2024-01-11T18:28:35;10.10;;;5.57;;
12792;SDS011;6460;42.684;23.260;2024-01-11T18:31:02;8.60;;;5.37;;
12792;SDS011;6460;42.684;23.260;2024-01-11T18:33:32;7.97;;;5.70;;
12792;SDS011;6460;42.684;23.260;2024-01-11T18:36:01;9.70;;;5.63;;
12792;SDS011;6460;42.684;23.260;2024-01-11T18:38:31;8.23;;;6.00;;
12792;SDS011;6460;42.684;23.260;2024-01-11T18:41:00;9.00;;;6.77;;
12792;SDS011;6460;42.684;23.260;2024-01-11T18:43:28;9.10;;;6.60;;
12792;SDS011;6460;42.684;23.260;2024-01-11T18:45:55;10.77;;;6.90;;
12792;SDS011;6460;42.684;23.260;2024-01-11T18:48:24;10.53;;;6.43;;
12792;SDS011;6460;42.684;23.260;2024-01-11T18:50:52;9.90;;;6.30;;
12792;SDS011;6460;42.684;23.260;2024-01-11T18:53:21;10.50;;;6.17;;
12792;SDS011;6460;42.684;23.260;2024-01-11T18:55:49;12.33;;;7.03;;
12792;SDS011;6460;42.684;23.260;2024-01-11T18:58:20;9.33;;;6.47;;
12792;SDS011;6460;42.684;23.260;2024-01-11T19:00:47;9.43;;;6.13;;
12792;SDS011;6460;42.684;23.260;2024-01-11T19:03:15;10.27;;;6.80;;
12792;SDS011;6460;42.684;23.260;2024-01-11T19:05:47;8.13;;;6.00;;
12792;SDS011;6460;42.684;23.260;2024-01-11T19:08:17;9.20;;;5.80;;
12792;SDS011;6460;42.684;23.260;2024-01-11T19:10:46;8.47;;;5.43;;
12792;SDS011;6460;42.684;23.260;2024-01-11T19:13:14;6.00;;;4.60;;
12792;SDS011;6460;42.684;23.260;2024-01-11T19:15:44;8.50;;;5.50;;
12792;SDS011;6460;42.684;23.260;2024-01-11T19:18:13;6.67;;;3.87;;
12792;SDS011;6460;42.684;23.260;2024-01-11T19:20:42;12.63;;;6.63;;
12792;SDS011;6460;42.684;23.260;2024-01-11T19:23:09;10.37;;;6.43;;
12792;SDS011;6460;42.684;23.260;2024-01-11T19:25:37;10.73;;;6.70;;
12792;SDS011;6460;42.684;23.260;2024-01-11T19:28:10;11.07;;;7.23;;
12792;SDS011;6460;42.684;23.260;2024-01-11T19:30:39;12.40;;;7.03;;
12792;SDS011;6460;42.684;23.260;2024-01-11T19:43:27;9.47;;;6.97;;
12792;SDS011;6460;42.684;23.260;2024-01-11T19:45:54;12.93;;;7.97;;
12792;SDS011;6460;42.684;23.260;2024-01-11T19:48:22;23.87;;;13.33;;
12792;SDS011;6460;42.684;23.260;2024-01-11T19:50:56;11.93;;;8.90;;
12792;SDS011;6460;42.684;23.260;2024-01-11T19:53:24;14.37;;;9.03;;
12792;SDS011;6460;42.684;23.260;2024-01-11T19:55:53;16.03;;;9.33;;
12792;SDS011;6460;42.684;23.260;2024-01-11T19:58:30;14.43;;;9.27;;
12792;SDS011;6460;42.684;23.260;2024-01-11T20:00:58;15.40;;;8.23;;
12792;SDS011;6460;42.684;23.260;2024-01-11T20:03:26;11.80;;;7.50;;
12792;SDS011;6460;42.684;23.260;2024-01-11T20:05:56;9.43;;;6.30;;
12792;SDS011;6460;42.684;23.260;2024-01-11T20:08:38;10.80;;;6.67;;
12792;SDS011;6460;42.684;23.260;2024-01-11T20:11:30;13.57;;;6.97;;
12792;SDS011;6460;42.684;23.260;2024-01-11T20:14:01;9.13;;;5.87;;
12792;SDS011;6460;42.684;23.260;2024-01-11T20:19:06;9.00;;;6.30;;
12792;SDS011;6460;42.684;23.260;2024-01-11T20:34:58;12.03;;;7.57;;
12792;SDS011;6460;42.684;23.260;2024-01-11T20:37:29;14.57;;;8.93;;
12792;SDS011;6460;42.684;23.260;2024-01-11T20:40:13;19.17;;;10.67;;
12792;SDS011;6460;42.684;23.260;2024-01-11T20:42:54;17.20;;;9.97;;
12792;SDS011;6460;42.684;23.260;2024-01-11T20:45:27;19.20;;;11.17;;
12792;SDS011;6460;42.684;23.260;2024-01-11T20:47:56;19.83;;;10.97;;
12792;SDS011;6460;42.684;23.260;2024-01-11T20:50:41;18.73;;;10.83;;
12792;SDS011;6460;42.684;23.260;2024-01-11T21:01:10;17.30;;;11.53;;
12792;SDS011;6460;42.684;23.260;2024-01-11T21:03:53;22.03;;;10.77;;
12792;SDS011;6460;42.684;23.260;2024-01-11T21:06:23;16.23;;;10.13;;
12792;SDS011;6460;42.684;23.260;2024-01-11T21:08:52;15.63;;;9.63;;
12792;SDS011;6460;42.684;23.260;2024-01-11T21:11:19;13.60;;;8.73;;
12792;SDS011;6460;42.684;23.260;2024-01-11T21:13:47;13.03;;;8.13;;
12792;SDS011;6460;42.684;23.260;2024-01-11T21:16:20;16.57;;;9.97;;
12792;SDS011;6460;42.684;23.260;2024-01-11T21:18:49;14.13;;;9.20;;
12792;SDS011;6460;42.684;23.260;2024-01-11T21:21:26;17.37;;;9.17;;
12792;SDS011;6460;42.684;23.260;2024-01-11T21:23:56;13.17;;;8.10;;
12792;SDS011;6460;42.684;23.260;2024-01-11T21:26:31;16.67;;;10.03;;
12792;SDS011;6460;42.684;23.260;2024-01-11T21:29:06;13.13;;;8.17;;
12792;SDS011;6460;42.684;23.260;2024-01-11T21:31:36;14.27;;;8.87;;
12792;SDS011;6460;42.684;23.260;2024-01-11T21:34:07;12.20;;;8.70;;
12792;SDS011;6460;42.684;23.260;2024-01-11T21:36:37;17.07;;;10.00;;
12792;SDS011;6460;42.684;23.260;2024-01-11T21:39:08;13.60;;;9.13;;
12792;SDS011;6460;42.684;23.260;2024-01-11T21:41:41;12.10;;;8.23;;
12792;SDS011;6460;42.684;23.260;2024-01-11T21:44:34;14.40;;;8.47;;
12792;SDS011;6460;42.684;23.260;2024-01-11T21:47:03;15.63;;;9.07;;
12792;SDS011;6460;42.684;23.260;2024-01-11T21:49:33;15.77;;;9.23;;
12792;SDS011;6460;42.684;23.260;2024-01-11T21:52:04;12.60;;;9.10;;
12792;SDS011;6460;42.684;23.260;2024-01-11T21:54:34;13.77;;;8.23;;
12792;SDS011;6460;42.684;23.260;2024-01-11T21:57:06;13.57;;;8.47;;
12792;SDS011;6460;42.684;23.260;2024-01-11T21:59:33;14.03;;;9.43;;
12792;SDS011;6460;42.684;23.260;2024-01-11T22:02:01;18.13;;;9.67;;
12792;SDS011;6460;42.684;23.260;2024-01-11T22:04:29;15.03;;;9.17;;
12792;SDS011;6460;42.684;23.260;2024-01-11T22:13:26;15.13;;;8.80;;
12792;SDS011;6460;42.684;23.260;2024-01-11T23:00:14;16.80;;;10.47;;
12792;SDS011;6460;42.684;23.260;2024-01-11T23:10:32;26.47;;;13.00;;
12792;SDS011;6460;42.684;23.260;2024-01-11T23:28:39;19.47;;;12.03;;
12792;SDS011;6460;42.684;23.260;2024-01-11T23:33:46;23.53;;;13.67;;
12792;SDS011;6460;42.684;23.260;2024-01-11T23:36:14;23.00;;;13.57;;
12792;SDS011;6460;42.684;23.260;2024-01-11T23:38:45;19.27;;;12.17;;
12792;SDS011;6460;42.684;23.260;2024-01-11T23:41:18;19.30;;;11.40;;
12792;SDS011;6460;42.684;23.260;2024-01-11T23:43:56;22.50;;;12.70;;
12792;SDS011;6460;42.684;23.260;2024-01-11T23:46:29;20.60;;;11.60;;
12792;SDS011;6460;42.684;23.260;2024-01-11T23:49:04;17.10;;;11.27;;
12792;SDS011;6460;42.684;23.260;2024-01-11T23:54:12;17.67;;;9.80;;
12792;SDS011;6460;42.684;23.260;2024-01-11T23:56:55;18.23;;;10.90;;
12792;SDS011;6460;42.684;23.260;2024-01-11T23:59:55;22.33;;;11.20;;
